sensor_id;sensor_type;location;lat;lon;timestamp;P1;durP1;ratioP1;P2;durP2;ratioP2
45326;SDS011;31062;49.678;24.560;2023-08-20T00:00:30;4.63;;;3.67;;
45326;SDS011;31062;49.678;24.560;2023-08-20T00:03:15;6.10;;;4.00;;
45326;SDS011;31062;49.678;24.560;2023-08-20T00:06:01;4.85;;;4.30;;
45326;SDS011;31062;49.678;24.560;2023-08-20T00:08:49;8.30;;;3.70;;
45326;SDS011;31062;49.678;24.560;2023-08-20T00:11:34;7.85;;;3.97;;
45326;SDS011;31062;49.678;24.560;2023-08-20T00:14:24;7.45;;;4.07;;
45326;SDS011;31062;49.678;24.560;2023-08-20T00:17:53;4.50;;;3.88;;
45326;SDS011;31062;49.678;24.560;2023-08-20T00:20:40;4.45;;;3.95;;
45326;SDS011;31062;49.678;24.560;2023-08-20T00:23:26;9.05;;;4.30;;
45326;SDS011;31062;49.678;24.560;2023-08-20T00:26:12;10.75;;;3.90;;
45326;SDS011;31062;49.678;24.560;2023-08-20T00:28:58;8.23;;;4.00;;
45326;SDS011;31062;49.678;24.560;2023-08-20T00:31:43;5.78;;;4.47;;
45326;SDS011;31062;49.678;24.560;2023-08-20T00:34:29;13.50;;;4.00;;
45326;SDS011;31062;49.678;24.560;2023-08-20T00:37:14;10.77;;;4.45;;
45326;SDS011;31062;49.678;24.560;2023-08-20T00:40:00;6.75;;;3.80;;
45326;SDS011;31062;49.678;24.560;2023-08-20T00:42:45;6.00;;;3.92;;
45326;SDS011;31062;49.678;24.560;2023-08-20T00:45:30;5.68;;;3.67;;
45326;SDS011;31062;49.678;24.560;2023-08-20T00:48:17;7.57;;;3.95;;
45326;SDS011;31062;49.678;24.560;2023-08-20T00:51:03;4.40;;;3.38;;
45326;SDS011;31062;49.678;24.560;2023-08-20T00:53:48;8.50;;;4.68;;
45326;SDS011;31062;49.678;24.560;2023-08-20T00:56:34;6.43;;;4.20;;
45326;SDS011;31062;49.678;24.560;2023-08-20T00:59:20;7.32;;;3.63;;
45326;SDS011;31062;49.678;24.560;2023-08-20T01:02:06;5.63;;;3.72;;
45326;SDS011;31062;49.678;24.560;2023-08-20T01:04:51;13.32;;;3.53;;
45326;SDS011;31062;49.678;24.560;2023-08-20T01:07:39;4.80;;;3.80;;
45326;SDS011;31062;49.678;24.560;2023-08-20T01:10:36;10.05;;;4.13;;
45326;SDS011;31062;49.678;24.560;2023-08-20T01:13:34;5.45;;;3.95;;
45326;SDS011;31062;49.678;24.560;2023-08-20T01:16:19;8.48;;;3.55;;
45326;SDS011;31062;49.678;24.560;2023-08-20T01:19:05;7.13;;;4.20;;
45326;SDS011;31062;49.678;24.560;2023-08-20T01:25:00;5.18;;;3.95;;
45326;SDS011;31062;49.678;24.560;2023-08-20T01:31:00;6.43;;;4.10;;
45326;SDS011;31062;49.678;24.560;2023-08-20T01:33:46;7.55;;;3.70;;
45326;SDS011;31062;49.678;24.560;2023-08-20T01:36:32;7.90;;;3.88;;
45326;SDS011;31062;49.678;24.560;2023-08-20T01:39:17;9.35;;;4.10;;
45326;SDS011;31062;49.678;24.560;2023-08-20T01:42:03;5.72;;;4.43;;
45326;SDS011;31062;49.678;24.560;2023-08-20T01:44:49;6.90;;;4.82;;
45326;SDS011;31062;49.678;24.560;2023-08-20T01:47:35;6.75;;;3.90;;
45326;SDS011;31062;49.678;24.560;2023-08-20T01:50:21;5.20;;;3.85;;
45326;SDS011;31062;49.678;24.560;2023-08-20T01:53:06;8.23;;;3.90;;
45326;SDS011;31062;49.678;24.560;2023-08-20T01:55:53;5.70;;;3.92;;
45326;SDS011;31062;49.678;24.560;2023-08-20T01:58:41;12.32;;;4.28;;
45326;SDS011;31062;49.678;24.560;2023-08-20T02:01:27;9.30;;;3.80;;
45326;SDS011;31062;49.678;24.560;2023-08-20T02:04:12;4.28;;;3.72;;
45326;SDS011;31062;49.678;24.560;2023-08-20T02:06:58;7.35;;;3.85;;
45326;SDS011;31062;49.678;24.560;2023-08-20T02:09:45;4.07;;;3.38;;
45326;SDS011;31062;49.678;24.560;2023-08-20T02:12:31;6.93;;;3.85;;
45326;SDS011;31062;49.678;24.560;2023-08-20T02:15:18;7.35;;;3.72;;
45326;SDS011;31062;49.678;24.560;2023-08-20T02:18:04;10.50;;;3.70;;
45326;SDS011;31062;49.678;24.560;2023-08-20T02:20:51;3.75;;;3.45;;
45326;SDS011;31062;49.678;24.560;2023-08-20T02:23:37;4.20;;;3.80;;
45326;SDS011;31062;49.678;24.560;2023-08-20T02:26:24;5.72;;;3.17;;
45326;SDS011;31062;49.678;24.560;2023-08-20T02:29:09;5.70;;;3.80;;
45326;SDS011;31062;49.678;24.560;2023-08-20T02:31:55;5.47;;;3.47;;
45326;SDS011;31062;49.678;24.560;2023-08-20T02:34:40;4.18;;;3.70;;
45326;SDS011;31062;49.678;24.560;2023-08-20T02:37:25;5.28;;;3.55;;
45326;SDS011;31062;49.678;24.560;2023-08-20T02:40:11;7.05;;;3.92;;
45326;SDS011;31062;49.678;24.560;2023-08-20T02:42:58;7.22;;;3.65;;
45326;SDS011;31062;49.678;24.560;2023-08-20T02:45:43;3.63;;;3.33;;
45326;SDS011;31062;49.678;24.560;2023-08-20T02:48:29;4.78;;;4.00;;
45326;SDS011;31062;49.678;24.560;2023-08-20T02:51:15;5.50;;;4.05;;
45326;SDS011;31062;49.678;24.560;2023-08-20T02:54:00;4.68;;;4.22;;
45326;SDS011;31062;49.678;24.560;2023-08-20T02:56:46;5.25;;;4.00;;
45326;SDS011;31062;49.678;24.560;2023-08-20T02:59:31;6.20;;;4.20;;
45326;SDS011;31062;49.678;24.560;2023-08-20T03:02:17;4.85;;;4.35;;
45326;SDS011;31062;49.678;24.560;2023-08-20T03:05:03;4.63;;;3.83;;
45326;SDS011;31062;49.678;24.560;2023-08-20T03:07:51;6.75;;;4.90;;
45326;SDS011;31062;49.678;24.560;2023-08-20T03:10:37;8.05;;;4.90;;
45326;SDS011;31062;49.678;24.560;2023-08-20T03:13:23;4.72;;;4.32;;
45326;SDS011;31062;49.678;24.560;2023-08-20T03:16:08;5.22;;;4.82;;
45326;SDS011;31062;49.678;24.560;2023-08-20T03:18:53;7.18;;;4.30;;
45326;SDS011;31062;49.678;24.560;2023-08-20T03:21:39;4.40;;;4.00;;
45326;SDS011;31062;49.678;24.560;2023-08-20T03:24:24;4.72;;;4.10;;
45326;SDS011;31062;49.678;24.560;2023-08-20T03:27:09;4.45;;;4.05;;
45326;SDS011;31062;49.678;24.560;2023-08-20T03:29:55;5.03;;;4.47;;
45326;SDS011;31062;49.678;24.560;2023-08-20T03:32:40;6.38;;;4.82;;
45326;SDS011;31062;49.678;24.560;2023-08-20T03:35:26;6.38;;;4.68;;
45326;SDS011;31062;49.678;24.560;2023-08-20T03:38:11;5.28;;;4.40;;
45326;SDS011;31062;49.678;24.560;2023-08-20T03:40:59;4.65;;;4.13;;
45326;SDS011;31062;49.678;24.560;2023-08-20T03:43:45;9.75;;;4.45;;
45326;SDS011;31062;49.678;24.560;2023-08-20T03:46:30;4.45;;;4.05;;
45326;SDS011;31062;49.678;24.560;2023-08-20T03:49:15;8.30;;;4.20;;
45326;SDS011;31062;49.678;24.560;2023-08-20T03:52:02;6.25;;;4.00;;
45326;SDS011;31062;49.678;24.560;2023-08-20T03:54:47;5.53;;;4.70;;
45326;SDS011;31062;49.678;24.560;2023-08-20T03:57:33;7.00;;;4.85;;
45326;SDS011;31062;49.678;24.560;2023-08-20T04:00:19;9.90;;;4.63;;
45326;SDS011;31062;49.678;24.560;2023-08-20T04:03:05;9.18;;;4.82;;
45326;SDS011;31062;49.678;24.560;2023-08-20T04:05:51;4.95;;;4.50;;
45326;SDS011;31062;49.678;24.560;2023-08-20T04:08:36;5.75;;;5.03;;
45326;SDS011;31062;49.678;24.560;2023-08-20T04:11:22;6.78;;;5.05;;
45326;SDS011;31062;49.678;24.560;2023-08-20T04:14:07;5.25;;;4.78;;
45326;SDS011;31062;49.678;24.560;2023-08-20T04:16:53;12.70;;;5.20;;
45326;SDS011;31062;49.678;24.560;2023-08-20T04:19:38;5.40;;;4.90;;
45326;SDS011;31062;49.678;24.560;2023-08-20T04:22:25;5.35;;;4.82;;
45326;SDS011;31062;49.678;24.560;2023-08-20T04:25:10;7.15;;;6.45;;
45326;SDS011;31062;49.678;24.560;2023-08-20T04:27:57;6.63;;;5.78;;
45326;SDS011;31062;49.678;24.560;2023-08-20T04:30:42;8.20;;;4.97;;
45326;SDS011;31062;49.678;24.560;2023-08-20T04:33:29;7.30;;;5.22;;
45326;SDS011;31062;49.678;24.560;2023-08-20T04:36:15;6.65;;;5.95;;
45326;SDS011;31062;49.678;24.560;2023-08-20T04:39:01;8.90;;;5.13;;
45326;SDS011;31062;49.678;24.560;2023-08-20T04:41:48;6.00;;;5.50;;
45326;SDS011;31062;49.678;24.560;2023-08-20T04:44:36;7.30;;;5.60;;
45326;SDS011;31062;49.678;24.560;2023-08-20T04:47:21;7.28;;;5.85;;
45326;SDS011;31062;49.678;24.560;2023-08-20T04:50:07;10.90;;;5.43;;
45326;SDS011;31062;49.678;24.560;2023-08-20T04:52:53;10.88;;;6.20;;
45326;SDS011;31062;49.678;24.560;2023-08-20T04:55:40;11.35;;;5.30;;
45326;SDS011;31062;49.678;24.560;2023-08-20T04:58:26;6.13;;;5.57;;
45326;SDS011;31062;49.678;24.560;2023-08-20T05:01:13;6.25;;;5.63;;
45326;SDS011;31062;49.678;24.560;2023-08-20T05:03:58;11.25;;;6.65;;
45326;SDS011;31062;49.678;24.560;2023-08-20T05:06:43;6.32;;;5.43;;
45326;SDS011;31062;49.678;24.560;2023-08-20T05:09:29;9.00;;;5.55;;
45326;SDS011;31062;49.678;24.560;2023-08-20T05:12:14;8.20;;;6.15;;
45326;SDS011;31062;49.678;24.560;2023-08-20T05:15:00;10.48;;;7.07;;
45326;SDS011;31062;49.678;24.560;2023-08-20T05:17:45;6.57;;;5.55;;
45326;SDS011;31062;49.678;24.560;2023-08-20T05:20:31;9.10;;;5.13;;
45326;SDS011;31062;49.678;24.560;2023-08-20T05:23:17;17.17;;;5.72;;
45326;SDS011;31062;49.678;24.560;2023-08-20T05:26:02;8.07;;;5.43;;
45326;SDS011;31062;49.678;24.560;2023-08-20T05:28:48;8.95;;;5.20;;
45326;SDS011;31062;49.678;24.560;2023-08-20T05:31:33;8.65;;;5.15;;
45326;SDS011;31062;49.678;24.560;2023-08-20T05:34:19;6.32;;;5.45;;
45326;SDS011;31062;49.678;24.560;2023-08-20T05:37:05;7.55;;;5.50;;
45326;SDS011;31062;49.678;24.560;2023-08-20T05:39:50;6.85;;;5.53;;
45326;SDS011;31062;49.678;24.560;2023-08-20T05:42:36;7.82;;;5.32;;
45326;SDS011;31062;49.678;24.560;2023-08-20T05:45:24;7.05;;;6.15;;
45326;SDS011;31062;49.678;24.560;2023-08-20T05:48:11;8.25;;;6.68;;
45326;SDS011;31062;49.678;24.560;2023-08-20T05:50:57;6.90;;;5.55;;
45326;SDS011;31062;49.678;24.560;2023-08-20T05:53:42;13.20;;;7.07;;
45326;SDS011;31062;49.678;24.560;2023-08-20T05:56:28;13.45;;;6.55;;
45326;SDS011;31062;49.678;24.560;2023-08-20T05:59:14;9.80;;;7.80;;
45326;SDS011;31062;49.678;24.560;2023-08-20T06:02:00;9.43;;;6.38;;
45326;SDS011;31062;49.678;24.560;2023-08-20T06:04:47;9.80;;;6.20;;
45326;SDS011;31062;49.678;24.560;2023-08-20T06:07:32;7.72;;;6.90;;
45326;SDS011;31062;49.678;24.560;2023-08-20T06:10:19;14.40;;;6.28;;
45326;SDS011;31062;49.678;24.560;2023-08-20T06:13:04;10.80;;;6.57;;
45326;SDS011;31062;49.678;24.560;2023-08-20T06:15:50;7.45;;;6.03;;
45326;SDS011;31062;49.678;24.560;2023-08-20T06:18:39;8.07;;;5.97;;
45326;SDS011;31062;49.678;24.560;2023-08-20T06:21:25;12.70;;;5.38;;
45326;SDS011;31062;49.678;24.560;2023-08-20T06:24:11;10.38;;;5.88;;
45326;SDS011;31062;49.678;24.560;2023-08-20T06:26:57;11.93;;;5.75;;
45326;SDS011;31062;49.678;24.560;2023-08-20T06:29:43;10.60;;;5.55;;
45326;SDS011;31062;49.678;24.560;2023-08-20T06:32:29;9.98;;;6.07;;
45326;SDS011;31062;49.678;24.560;2023-08-20T06:35:14;7.28;;;5.28;;
45326;SDS011;31062;49.678;24.560;2023-08-20T06:38:00;6.63;;;5.85;;
45326;SDS011;31062;49.678;24.560;2023-08-20T06:40:46;6.15;;;5.55;;
45326;SDS011;31062;49.678;24.560;2023-08-20T06:43:33;9.07;;;5.78;;
45326;SDS011;31062;49.678;24.560;2023-08-20T06:46:18;13.32;;;6.07;;
45326;SDS011;31062;49.678;24.560;2023-08-20T06:49:04;12.23;;;6.10;;
45326;SDS011;31062;49.678;24.560;2023-08-20T06:51:50;11.05;;;5.95;;
45326;SDS011;31062;49.678;24.560;2023-08-20T06:54:35;13.18;;;5.30;;
45326;SDS011;31062;49.678;24.560;2023-08-20T06:57:21;12.20;;;5.75;;
45326;SDS011;31062;49.678;24.560;2023-08-20T07:00:07;8.07;;;6.15;;
45326;SDS011;31062;49.678;24.560;2023-08-20T07:02:53;15.88;;;5.90;;
45326;SDS011;31062;49.678;24.560;2023-08-20T07:05:39;12.75;;;6.53;;
45326;SDS011;31062;49.678;24.560;2023-08-20T07:08:25;11.15;;;6.45;;
45326;SDS011;31062;49.678;24.560;2023-08-20T07:11:10;20.35;;;6.35;;
45326;SDS011;31062;49.678;24.560;2023-08-20T07:13:56;17.15;;;6.80;;
45326;SDS011;31062;49.678;24.560;2023-08-20T07:16:42;13.48;;;5.93;;
45326;SDS011;31062;49.678;24.560;2023-08-20T07:19:31;13.95;;;6.35;;
45326;SDS011;31062;49.678;24.560;2023-08-20T07:22:17;13.07;;;6.80;;
45326;SDS011;31062;49.678;24.560;2023-08-20T07:25:02;17.35;;;6.57;;
45326;SDS011;31062;49.678;24.560;2023-08-20T07:27:49;14.95;;;6.32;;
45326;SDS011;31062;49.678;24.560;2023-08-20T07:30:37;17.63;;;7.45;;
45326;SDS011;31062;49.678;24.560;2023-08-20T07:33:23;13.98;;;6.53;;
45326;SDS011;31062;49.678;24.560;2023-08-20T07:36:09;21.40;;;6.85;;
45326;SDS011;31062;49.678;24.560;2023-08-20T07:38:55;14.68;;;5.97;;
45326;SDS011;31062;49.678;24.560;2023-08-20T07:41:47;24.88;;;6.50;;
45326;SDS011;31062;49.678;24.560;2023-08-20T07:44:34;9.75;;;5.47;;
45326;SDS011;31062;49.678;24.560;2023-08-20T07:47:21;13.35;;;7.00;;
45326;SDS011;31062;49.678;24.560;2023-08-20T07:50:07;15.77;;;6.05;;
45326;SDS011;31062;49.678;24.560;2023-08-20T07:52:53;12.32;;;6.60;;
45326;SDS011;31062;49.678;24.560;2023-08-20T07:55:41;12.65;;;6.93;;
45326;SDS011;31062;49.678;24.560;2023-08-20T07:58:30;15.70;;;6.40;;
45326;SDS011;31062;49.678;24.560;2023-08-20T08:01:17;12.60;;;6.60;;
45326;SDS011;31062;49.678;24.560;2023-08-20T08:04:04;18.55;;;5.95;;
45326;SDS011;31062;49.678;24.560;2023-08-20T08:06:51;29.35;;;7.22;;
45326;SDS011;31062;49.678;24.560;2023-08-20T08:09:37;13.38;;;5.10;;
45326;SDS011;31062;49.678;24.560;2023-08-20T08:12:32;19.83;;;6.63;;
45326;SDS011;31062;49.678;24.560;2023-08-20T08:15:19;21.52;;;6.38;;
45326;SDS011;31062;49.678;24.560;2023-08-20T08:18:05;19.75;;;5.50;;
45326;SDS011;31062;49.678;24.560;2023-08-20T08:20:51;27.60;;;5.40;;
45326;SDS011;31062;49.678;24.560;2023-08-20T08:23:41;30.38;;;6.25;;
45326;SDS011;31062;49.678;24.560;2023-08-20T08:26:29;31.73;;;7.63;;
45326;SDS011;31062;49.678;24.560;2023-08-20T08:29:16;38.25;;;8.48;;
45326;SDS011;31062;49.678;24.560;2023-08-20T08:32:23;37.05;;;7.70;;
45326;SDS011;31062;49.678;24.560;2023-08-20T08:35:09;24.15;;;7.05;;
45326;SDS011;31062;49.678;24.560;2023-08-20T08:37:54;22.17;;;7.85;;
45326;SDS011;31062;49.678;24.560;2023-08-20T08:40:40;26.27;;;7.50;;
45326;SDS011;31062;49.678;24.560;2023-08-20T08:43:27;24.95;;;6.55;;
45326;SDS011;31062;49.678;24.560;2023-08-20T08:46:15;15.70;;;6.45;;
45326;SDS011;31062;49.678;24.560;2023-08-20T08:49:02;26.30;;;6.63;;
45326;SDS011;31062;49.678;24.560;2023-08-20T08:51:49;30.38;;;6.45;;
45326;SDS011;31062;49.678;24.560;2023-08-20T08:54:42;32.85;;;6.68;;
45326;SDS011;31062;49.678;24.560;2023-08-20T08:57:37;29.40;;;5.90;;
45326;SDS011;31062;49.678;24.560;2023-08-20T09:00:23;20.05;;;6.38;;
45326;SDS011;31062;49.678;24.560;2023-08-20T09:03:09;33.25;;;7.97;;
45326;SDS011;31062;49.678;24.560;2023-08-20T09:06:09;28.95;;;6.43;;
45326;SDS011;31062;49.678;24.560;2023-08-20T09:09:03;18.70;;;5.85;;
45326;SDS011;31062;49.678;24.560;2023-08-20T09:11:50;25.92;;;5.65;;
45326;SDS011;31062;49.678;24.560;2023-08-20T09:14:35;16.70;;;5.22;;
45326;SDS011;31062;49.678;24.560;2023-08-20T09:17:21;15.02;;;5.43;;
45326;SDS011;31062;49.678;24.560;2023-08-20T09:20:11;27.30;;;6.40;;
45326;SDS011;31062;49.678;24.560;2023-08-20T09:22:57;22.77;;;6.55;;
45326;SDS011;31062;49.678;24.560;2023-08-20T09:25:43;21.65;;;5.75;;
45326;SDS011;31062;49.678;24.560;2023-08-20T09:28:29;15.88;;;6.38;;
45326;SDS011;31062;49.678;24.560;2023-08-20T09:31:38;11.13;;;5.70;;
45326;SDS011;31062;49.678;24.560;2023-08-20T09:34:24;12.65;;;4.70;;
45326;SDS011;31062;49.678;24.560;2023-08-20T09:37:13;8.63;;;4.60;;
45326;SDS011;31062;49.678;24.560;2023-08-20T09:39:59;5.43;;;4.38;;
45326;SDS011;31062;49.678;24.560;2023-08-20T09:42:44;13.05;;;5.78;;
45326;SDS011;31062;49.678;24.560;2023-08-20T09:45:31;16.45;;;5.15;;
45326;SDS011;31062;49.678;24.560;2023-08-20T09:48:20;12.00;;;6.32;;
45326;SDS011;31062;49.678;24.560;2023-08-20T09:51:08;20.85;;;5.78;;
45326;SDS011;31062;49.678;24.560;2023-08-20T09:54:00;16.00;;;5.88;;
45326;SDS011;31062;49.678;24.560;2023-08-20T09:56:54;11.63;;;5.85;;
45326;SDS011;31062;49.678;24.560;2023-08-20T09:59:44;12.55;;;6.43;;
45326;SDS011;31062;49.678;24.560;2023-08-20T10:02:32;12.30;;;5.95;;
45326;SDS011;31062;49.678;24.560;2023-08-20T10:05:18;16.70;;;6.38;;
45326;SDS011;31062;49.678;24.560;2023-08-20T10:08:06;21.55;;;7.40;;
45326;SDS011;31062;49.678;24.560;2023-08-20T10:10:53;12.95;;;6.50;;
45326;SDS011;31062;49.678;24.560;2023-08-20T10:13:39;16.83;;;6.30;;
45326;SDS011;31062;49.678;24.560;2023-08-20T10:16:27;10.77;;;5.47;;
45326;SDS011;31062;49.678;24.560;2023-08-20T10:19:14;8.30;;;5.93;;
45326;SDS011;31062;49.678;24.560;2023-08-20T10:22:02;10.15;;;5.82;;
45326;SDS011;31062;49.678;24.560;2023-08-20T10:24:49;16.58;;;5.95;;
45326;SDS011;31062;49.678;24.560;2023-08-20T10:27:40;13.93;;;6.07;;
45326;SDS011;31062;49.678;24.560;2023-08-20T10:33:13;8.77;;;5.47;;
45326;SDS011;31062;49.678;24.560;2023-08-20T10:36:13;7.97;;;5.53;;
45326;SDS011;31062;49.678;24.560;2023-08-20T10:39:04;10.00;;;5.03;;
45326;SDS011;31062;49.678;24.560;2023-08-20T10:42:02;12.55;;;5.40;;
45326;SDS011;31062;49.678;24.560;2023-08-20T10:45:01;13.52;;;6.10;;
45326;SDS011;31062;49.678;24.560;2023-08-20T10:47:54;14.68;;;7.85;;
45326;SDS011;31062;49.678;24.560;2023-08-20T10:50:40;10.25;;;6.28;;
45326;SDS011;31062;49.678;24.560;2023-08-20T10:53:26;8.77;;;5.38;;
45326;SDS011;31062;49.678;24.560;2023-08-20T10:56:13;13.52;;;5.63;;
45326;SDS011;31062;49.678;24.560;2023-08-20T10:59:00;11.48;;;5.65;;
45326;SDS011;31062;49.678;24.560;2023-08-20T11:01:54;11.57;;;4.63;;
45326;SDS011;31062;49.678;24.560;2023-08-20T11:04:44;7.22;;;5.00;;
45326;SDS011;31062;49.678;24.560;2023-08-20T11:07:30;6.65;;;5.25;;
45326;SDS011;31062;49.678;24.560;2023-08-20T11:10:17;22.52;;;6.18;;
45326;SDS011;31062;49.678;24.560;2023-08-20T11:13:02;15.68;;;5.57;;
45326;SDS011;31062;49.678;24.560;2023-08-20T11:15:48;9.55;;;5.60;;
45326;SDS011;31062;49.678;24.560;2023-08-20T11:18:34;9.00;;;5.03;;
45326;SDS011;31062;49.678;24.560;2023-08-20T11:21:21;9.57;;;4.90;;
45326;SDS011;31062;49.678;24.560;2023-08-20T11:24:07;5.95;;;4.95;;
45326;SDS011;31062;49.678;24.560;2023-08-20T11:26:53;12.23;;;5.30;;
45326;SDS011;31062;49.678;24.560;2023-08-20T11:29:44;6.28;;;4.45;;
45326;SDS011;31062;49.678;24.560;2023-08-20T11:32:31;9.80;;;4.70;;
45326;SDS011;31062;49.678;24.560;2023-08-20T11:35:18;7.50;;;4.78;;
45326;SDS011;31062;49.678;24.560;2023-08-20T11:38:04;7.95;;;5.13;;
45326;SDS011;31062;49.678;24.560;2023-08-20T11:40:50;9.02;;;4.72;;
45326;SDS011;31062;49.678;24.560;2023-08-20T11:43:36;12.05;;;5.22;;
45326;SDS011;31062;49.678;24.560;2023-08-20T11:46:22;13.20;;;4.95;;
45326;SDS011;31062;49.678;24.560;2023-08-20T11:49:09;7.38;;;5.20;;
45326;SDS011;31062;49.678;24.560;2023-08-20T11:51:56;10.63;;;5.40;;
45326;SDS011;31062;49.678;24.560;2023-08-20T11:54:42;14.60;;;5.60;;
45326;SDS011;31062;49.678;24.560;2023-08-20T11:57:28;15.10;;;5.28;;
45326;SDS011;31062;49.678;24.560;2023-08-20T12:00:23;9.38;;;4.20;;
45326;SDS011;31062;49.678;24.560;2023-08-20T12:03:10;5.57;;;5.07;;
45326;SDS011;31062;49.678;24.560;2023-08-20T12:05:56;6.47;;;4.10;;
45326;SDS011;31062;49.678;24.560;2023-08-20T12:08:41;11.02;;;5.00;;
45326;SDS011;31062;49.678;24.560;2023-08-20T12:11:27;12.60;;;5.20;;
45326;SDS011;31062;49.678;24.560;2023-08-20T12:14:13;6.90;;;5.40;;
45326;SDS011;31062;49.678;24.560;2023-08-20T12:16:59;7.15;;;4.78;;
45326;SDS011;31062;49.678;24.560;2023-08-20T12:19:44;8.68;;;4.90;;
45326;SDS011;31062;49.678;24.560;2023-08-20T12:22:30;8.95;;;5.20;;
45326;SDS011;31062;49.678;24.560;2023-08-20T12:25:16;8.77;;;5.30;;
45326;SDS011;31062;49.678;24.560;2023-08-20T12:28:01;6.05;;;4.78;;
45326;SDS011;31062;49.678;24.560;2023-08-20T12:30:50;10.88;;;4.93;;
45326;SDS011;31062;49.678;24.560;2023-08-20T12:33:35;7.72;;;4.53;;
45326;SDS011;31062;49.678;24.560;2023-08-20T12:36:21;8.15;;;4.50;;
45326;SDS011;31062;49.678;24.560;2023-08-20T12:39:06;15.45;;;5.40;;
45326;SDS011;31062;49.678;24.560;2023-08-20T12:41:52;9.45;;;5.00;;
45326;SDS011;31062;49.678;24.560;2023-08-20T12:44:37;8.23;;;6.05;;
45326;SDS011;31062;49.678;24.560;2023-08-20T12:47:23;5.82;;;4.60;;
45326;SDS011;31062;49.678;24.560;2023-08-20T12:50:10;7.38;;;4.35;;
45326;SDS011;31062;49.678;24.560;2023-08-20T12:52:58;6.10;;;4.03;;
45326;SDS011;31062;49.678;24.560;2023-08-20T12:55:44;9.68;;;4.38;;
45326;SDS011;31062;49.678;24.560;2023-08-20T12:58:30;15.40;;;4.93;;
45326;SDS011;31062;49.678;24.560;2023-08-20T13:01:16;10.65;;;4.63;;
45326;SDS011;31062;49.678;24.560;2023-08-20T13:04:03;9.90;;;5.07;;
45326;SDS011;31062;49.678;24.560;2023-08-20T13:06:52;11.15;;;6.18;;
45326;SDS011;31062;49.678;24.560;2023-08-20T13:09:38;12.02;;;5.15;;
45326;SDS011;31062;49.678;24.560;2023-08-20T13:12:25;9.50;;;5.47;;
45326;SDS011;31062;49.678;24.560;2023-08-20T13:15:12;13.02;;;4.72;;
45326;SDS011;31062;49.678;24.560;2023-08-20T13:17:59;12.95;;;4.90;;
45326;SDS011;31062;49.678;24.560;2023-08-20T13:20:45;8.73;;;4.43;;
45326;SDS011;31062;49.678;24.560;2023-08-20T13:23:31;4.00;;;3.40;;
45326;SDS011;31062;49.678;24.560;2023-08-20T13:26:16;4.38;;;3.97;;
45326;SDS011;31062;49.678;24.560;2023-08-20T13:29:03;13.13;;;4.90;;
45326;SDS011;31062;49.678;24.560;2023-08-20T13:31:48;9.00;;;4.00;;
45326;SDS011;31062;49.678;24.560;2023-08-20T13:34:34;15.23;;;4.65;;
45326;SDS011;31062;49.678;24.560;2023-08-20T13:37:20;5.40;;;3.72;;
45326;SDS011;31062;49.678;24.560;2023-08-20T13:40:07;10.75;;;4.72;;
45326;SDS011;31062;49.678;24.560;2023-08-20T13:42:54;7.07;;;4.50;;
45326;SDS011;31062;49.678;24.560;2023-08-20T13:45:40;10.82;;;4.93;;
45326;SDS011;31062;49.678;24.560;2023-08-20T13:48:25;8.43;;;4.85;;
45326;SDS011;31062;49.678;24.560;2023-08-20T13:51:11;9.95;;;5.07;;
45326;SDS011;31062;49.678;24.560;2023-08-20T13:53:57;6.20;;;3.97;;
45326;SDS011;31062;49.678;24.560;2023-08-20T13:56:43;4.20;;;3.70;;
45326;SDS011;31062;49.678;24.560;2023-08-20T13:59:29;10.10;;;4.05;;
45326;SDS011;31062;49.678;24.560;2023-08-20T14:02:16;9.32;;;4.53;;
45326;SDS011;31062;49.678;24.560;2023-08-20T14:05:01;8.82;;;3.78;;
45326;SDS011;31062;49.678;24.560;2023-08-20T14:07:49;6.88;;;3.97;;
45326;SDS011;31062;49.678;24.560;2023-08-20T14:10:35;10.05;;;4.35;;
45326;SDS011;31062;49.678;24.560;2023-08-20T14:13:21;7.25;;;4.40;;
45326;SDS011;31062;49.678;24.560;2023-08-20T14:16:06;12.70;;;4.50;;
45326;SDS011;31062;49.678;24.560;2023-08-20T14:18:52;18.38;;;5.05;;
45326;SDS011;31062;49.678;24.560;2023-08-20T14:21:37;9.65;;;5.43;;
45326;SDS011;31062;49.678;24.560;2023-08-20T14:24:23;8.18;;;4.28;;
45326;SDS011;31062;49.678;24.560;2023-08-20T14:27:08;7.75;;;4.68;;
45326;SDS011;31062;49.678;24.560;2023-08-20T14:29:53;9.00;;;4.97;;
45326;SDS011;31062;49.678;24.560;2023-08-20T14:32:39;8.32;;;4.55;;
45326;SDS011;31062;49.678;24.560;2023-08-20T14:35:26;6.90;;;4.57;;
45326;SDS011;31062;49.678;24.560;2023-08-20T14:38:11;6.95;;;5.18;;
45326;SDS011;31062;49.678;24.560;2023-08-20T14:41:00;6.43;;;4.72;;
45326;SDS011;31062;49.678;24.560;2023-08-20T14:43:49;5.90;;;4.75;;
45326;SDS011;31062;49.678;24.560;2023-08-20T14:46:34;9.90;;;4.68;;
45326;SDS011;31062;49.678;24.560;2023-08-20T14:49:19;8.40;;;4.97;;
45326;SDS011;31062;49.678;24.560;2023-08-20T14:52:05;6.18;;;4.80;;
45326;SDS011;31062;49.678;24.560;2023-08-20T14:55:04;6.47;;;4.35;;
45326;SDS011;31062;49.678;24.560;2023-08-20T14:57:53;9.32;;;5.13;;
45326;SDS011;31062;49.678;24.560;2023-08-20T15:00:40;5.47;;;5.03;;
45326;SDS011;31062;49.678;24.560;2023-08-20T15:03:25;7.90;;;4.88;;
45326;SDS011;31062;49.678;24.560;2023-08-20T15:06:11;7.70;;;4.93;;
45326;SDS011;31062;49.678;24.560;2023-08-20T15:08:56;6.65;;;4.60;;
45326;SDS011;31062;49.678;24.560;2023-08-20T15:11:42;6.75;;;5.47;;
45326;SDS011;31062;49.678;24.560;2023-08-20T15:14:28;10.40;;;4.75;;
45326;SDS011;31062;49.678;24.560;2023-08-20T15:17:13;7.70;;;5.00;;
45326;SDS011;31062;49.678;24.560;2023-08-20T15:19:59;6.97;;;5.90;;
45326;SDS011;31062;49.678;24.560;2023-08-20T15:22:45;10.70;;;5.68;;
45326;SDS011;31062;49.678;24.560;2023-08-20T15:25:30;12.43;;;5.53;;
45326;SDS011;31062;49.678;24.560;2023-08-20T15:28:16;11.60;;;5.63;;
45326;SDS011;31062;49.678;24.560;2023-08-20T15:31:01;11.27;;;5.82;;
45326;SDS011;31062;49.678;24.560;2023-08-20T15:33:47;7.53;;;5.45;;
45326;SDS011;31062;49.678;24.560;2023-08-20T15:36:33;7.50;;;5.60;;
45326;SDS011;31062;49.678;24.560;2023-08-20T15:39:18;11.48;;;5.40;;
45326;SDS011;31062;49.678;24.560;2023-08-20T15:42:04;7.07;;;4.82;;
45326;SDS011;31062;49.678;24.560;2023-08-20T15:44:52;10.85;;;5.60;;
45326;SDS011;31062;49.678;24.560;2023-08-20T15:47:37;17.80;;;5.80;;
45326;SDS011;31062;49.678;24.560;2023-08-20T15:50:24;12.48;;;5.95;;
45326;SDS011;31062;49.678;24.560;2023-08-20T15:53:11;13.77;;;6.60;;
45326;SDS011;31062;49.678;24.560;2023-08-20T15:55:59;8.35;;;5.55;;
45326;SDS011;31062;49.678;24.560;2023-08-20T15:58:44;6.18;;;5.57;;
45326;SDS011;31062;49.678;24.560;2023-08-20T16:01:30;7.07;;;6.25;;
45326;SDS011;31062;49.678;24.560;2023-08-20T16:04:20;8.18;;;6.07;;
45326;SDS011;31062;49.678;24.560;2023-08-20T16:07:13;6.28;;;5.68;;
45326;SDS011;31062;49.678;24.560;2023-08-20T16:10:00;8.50;;;5.55;;
45326;SDS011;31062;49.678;24.560;2023-08-20T16:12:47;13.73;;;6.07;;
45326;SDS011;31062;49.678;24.560;2023-08-20T16:15:32;10.30;;;6.18;;
45326;SDS011;31062;49.678;24.560;2023-08-20T16:18:18;8.45;;;5.53;;
45326;SDS011;31062;49.678;24.560;2023-08-20T16:21:16;6.72;;;5.97;;
45326;SDS011;31062;49.678;24.560;2023-08-20T16:24:04;6.25;;;5.75;;
45326;SDS011;31062;49.678;24.560;2023-08-20T16:26:51;6.57;;;5.97;;
45326;SDS011;31062;49.678;24.560;2023-08-20T16:29:40;18.70;;;6.10;;
45326;SDS011;31062;49.678;24.560;2023-08-20T16:32:26;11.88;;;5.72;;